Faust, Utah
Current Conditions -  °F | °C
As of 1:55 AM on Saturday 25 Oct 2014 (Local Time) from KPVU Reporting Station
Clear Clear  
Wind Chill: 52°   Ceiling: Unl
Heat Index: 52°   Visibility: 10mi
Dew Point: 28°   Wind: 8mph
Humidity: 41%   Direction: 120°ESE
Pressure: 30.16"   Gusts: NA
Location:  40.0384°N, 112.37°W
Report Text: KPVU 250755Z AUTO 12007KT 10SM CLR 11/M02 A3016 RMK AO1
Loading
Personal Weather Stations






























Interactive Weather Map
Tropical Storm Tracking
New forecast layout! Learn more

10-Day Weather Forecast

Advertisements
Track Severe Weather on mobile